Date,TemperatureHighF,TemperatureAvgF,TemperatureLowF,DewpointHighF,DewpointAvgF,DewpointLowF,HumidityHigh,HumidityAvg,HumidityLow,PressureMaxIn,PressureMinIn,WindSpeedMaxMPH,WindSpeedAvgMPH,GustSpeedMaxMPH,PrecipitationSumIn
2013-1-1,34.7,31.5,24.4,32.3,27.7,18.0,95,86,74,29.62,29.50,4,1,18,0.00
2013-1-2,28.4,21.9,14.9,20.4,16.6,12.5,93,80,69,29.82,29.61,2,0,11,0.00
2013-1-3,31.3,20.2,5.4,25.0,16.3,4.1,98,85,68,29.80,29.66,4,0,15,0.00
2013-1-4,32.5,29.7,28.2,25.7,23.6,21.5,87,78,72,29.72,29.61,5,2,21,0.00
2013-1-5,34.0,28.1,23.4,27.5,24.0,21.2,98,85,73,29.97,29.71,4,1,17,0.00
2013-1-6,38.5,31.8,25.7,34.2,29.9,6.4,100,93,29,29.75,29.57,3,0,49,0.00
2013-1-7,37.2,32.7,20.7,34.3,30.2,-13.9,100,91,13,29.98,29.71,2,0,11,0.19
2013-1-8,36.9,23.7,14.7,32.6,22.6,14.8,100,96,80,29.97,29.90,2,0,4,0.00
2013-1-9,41.0,28.3,17.6,39.1,27.3,17.5,100,97,75,29.95,29.74,4,1,17,0.00
2013-1-10,41.5,33.7,26.8,34.9,30.9,26.6,100,90,75,30.18,29.94,2,0,17,0.00
2013-1-11,42.1,35.7,30.9,36.1,34.2,30.9,100,95,81,30.05,29.68,2,0,11,0.28
2013-1-12,40.1,35.4,33.4,40.1,35.4,33.4,100,100,100,29.75,29.53,1,0,3,0.00
2013-1-13,44.6,37.8,33.6,44.6,37.8,33.6,100,100,100,29.69,29.53,1,0,4,0.00
2013-1-14,46.0,40.8,34.7,46.0,38.1,31.3,100,90,68,29.93,29.49,3,0,14,0.08
2013-1-15,34.7,30.7,24.6,32.3,28.8,24.6,100,93,80,29.97,29.75,2,0,4,0.00
2013-1-16,33.8,30.9,28.4,33.8,31.0,28.4,100,100,100,29.75,29.46,0,0,6,0.00
2013-1-17,36.9,32.7,28.0,34.9,32.2,28.1,100,98,89,29.72,29.54,2,0,11,0.04
2013-1-18,32.0,24.2,17.8,30.7,16.5,11.2,97,73,55,30.04,29.64,3,1,16,0.01
2013-1-19,48.2,32.3,15.3,32.0,23.6,14.1,96,73,48,29.86,29.40,3,1,14,0.05
2013-1-20,43.7,35.3,20.3,35.1,23.8,11.3,75,63,48,29.70,29.28,6,2,27,0.00
2013-1-21,25.7,21.9,14.7,23.9,15.9,5.0,94,78,64,29.67,29.45,4,1,17,0.00
2013-1-22,14.7,10.3,6.1,5.5,1.0,-2.4,74,65,49,29.81,29.52,5,2,19,0.00
2013-1-23,16.5,9.1,5.2,5.8,1.6,-1.0,82,71,58,29.83,29.70,3,1,14,0.00
2013-1-24,23.7,13.4,5.4,10.2,5.6,0.8,92,72,50,30.08,29.66,2,0,14,0.00
2013-1-25,17.6,10.9,6.8,12.8,6.3,0.8,94,82,63,30.07,29.62,1,0,8,0.00
2013-1-26,25.2,15.8,5.9,19.7,13.4,4.2,99,90,75,29.99,29.65,1,0,4,0.05
2013-1-27,32.4,20.4,7.5,21.7,16.1,7.1,100,85,57,30.14,29.98,1,0,5,0.00
2013-1-28,33.1,30.2,25.0,32.9,29.1,20.3,100,96,74,30.01,29.59,1,0,8,0.22
2013-1-29,37.0,33.5,32.4,37.0,33.5,32.4,100,100,100,29.69,29.52,1,0,4,0.15
2013-1-30,57.6,44.6,31.8,57.4,44.6,31.8,100,100,100,29.52,28.78,3,1,14,1.02
2013-1-31,52.3,32.7,22.3,52.3,28.6,16.8,100,85,62,29.39,28.75,8,3,27,0.41
2013-2-1,23.9,19.7,14.9,21.5,12.9,6.9,96,75,56,29.87,29.36,5,2,20,0.00
2013-2-2,24.4,17.7,10.8,20.9,13.1,5.6,100,82,66,29.87,29.56,3,1,12,0.00
2013-2-3,29.1,22.7,18.3,27.4,20.9,13.2,100,93,74,29.56,29.36,3,0,14,0.04
2013-2-4,28.0,22.5,17.6,24.1,16.4,9.9,100,78,61,29.61,29.47,4,1,15,0.00
2013-2-5,29.5,26.2,23.7,28.8,26.0,23.6,100,99,94,29.52,29.42,1,0,10,0.01
2013-2-6,36.9,27.4,17.8,30.0,23.3,16.6,100,86,56,29.93,29.51,2,0,11,0.04
2013-2-7,39.7,26.1,15.1,29.2,21.5,14.7,100,84,64,29.99,29.76,2,0,14,0.00
2013-2-8,37.2,32.1,23.0,37.0,30.7,19.4,100,95,77,29.76,29.37,4,1,17,0.04
2013-2-9,34.9,25.1,18.3,23.5,18.6,15.2,92,77,59,29.99,29.59,3,0,14,0.01
2013-2-10,42.3,26.6,12.2,28.4,20.4,12.3,100,79,53,30.02,29.70,2,0,14,0.00
2013-2-11,51.8,39.2,32.4,48.8,35.4,23.3,100,87,60,29.73,29.22,7,1,27,0.01
2013-2-12,37.9,33.6,25.0,30.2,26.8,24.0,97,76,68,29.60,29.42,6,2,25,0.00
2013-2-13,40.6,29.6,19.9,34.0,28.0,20.0,100,94,75,29.55,29.28,2,0,5,0.00
2013-2-14,39.4,32.6,25.0,37.4,31.9,25.0,100,97,89,29.57,29.36,1,0,8,0.18
2013-2-15,45.5,37.0,29.8,36.0,32.5,28.4,100,85,59,29.60,29.49,4,0,14,0.00
2013-2-16,35.1,29.8,25.3,30.4,20.6,14.2,98,70,44,29.60,29.46,2,0,10,0.00
2013-2-17,28.6,21.3,16.2,17.0,10.4,5.5,77,63,43,29.75,29.44,4,1,25,0.00
2013-2-18,36.9,25.3,13.8,18.2,13.4,8.3,80,62,42,29.89,29.63,4,1,13,0.00
2013-2-19,38.7,31.3,25.0,38.5,27.3,17.0,100,86,60,29.63,29.24,5,1,18,0.31
2013-2-20,27.7,22.6,19.6,22.5,14.5,10.8,83,70,59,29.69,29.42,5,2,19,0.01
2013-2-21,33.6,24.8,20.3,21.0,17.1,13.6,86,73,56,29.93,29.67,4,1,16,0.00
2013-2-22,31.8,26.2,18.9,27.7,22.9,16.4,94,87,73,29.97,29.74,3,0,11,0.00
2013-2-23,38.5,33.3,30.0,38.2,32.9,27.2,100,98,89,29.73,29.45,1,0,7,0.00
2013-2-24,35.1,32.2,27.1,33.3,27.9,22.1,100,85,65,29.68,29.43,3,1,14,0.00
2013-2-25,45.7,31.2,20.8,30.9,25.2,20.1,100,80,51,29.80,29.68,2,0,8,0.00
2013-2-26,39.9,33.7,26.4,35.6,30.5,24.5,100,89,70,29.79,29.35,4,1,14,0.19
2013-2-27,37.4,33.7,32.4,37.4,33.7,32.4,100,100,100,29.34,29.19,3,0,8,0.76
2013-2-28,45.9,35.0,32.5,38.3,34.4,-11.3,100,98,87,29.31,29.20,3,0,12,0.01
2013-3-1,39.4,34.7,29.7,39.1,30.7,-11.5,100,86,71,29.50,29.30,2,0,49,0.05
2013-3-2,36.5,30.6,26.6,26.6,24.1,22.1,91,77,61,29.49,29.40,2,0,9,0.00
2013-3-3,33.4,28.1,24.1,24.9,22.2,18.4,93,79,69,29.50,29.39,3,1,15,0.00
2013-3-4,31.8,27.3,24.3,23.7,20.7,17.7,84,76,70,29.64,29.49,3,1,16,0.00
2013-3-5,41.2,30.3,25.3,30.8,25.0,21.0,94,81,64,29.67,29.45,3,0,11,0.00
2013-3-6,41.9,36.4,28.2,33.2,31.1,27.0,96,81,69,29.66,29.39,5,2,13,0.00
2013-3-7,45.7,37.6,30.4,31.7,29.0,24.1,86,72,51,29.79,29.65,4,0,12,0.00
2013-3-8,46.8,34.9,25.5,31.0,26.1,22.6,90,71,53,29.95,29.76,4,1,14,0.00
2013-3-9,57.4,35.7,20.8,34.6,27.2,20.9,100,76,35,29.99,29.85,2,0,7,0.00
2013-3-10,64.8,45.5,26.4,39.8,31.7,25.4,99,63,35,29.88,29.73,2,0,12,0.00
2013-3-11,55.4,49.1,43.9,51.4,37.2,24.6,100,65,43,29.75,29.43,4,1,14,0.07
2013-3-12,52.0,44.7,37.0,52.0,43.5,34.0,100,95,84,29.55,29.35,4,1,16,0.69
2013-3-13,46.0,34.2,26.8,37.4,29.3,19.4,100,83,55,29.62,29.45,5,1,21,0.00
2013-3-14,39.9,30.4,25.7,24.6,19.9,15.1,94,66,43,29.68,29.58,4,2,23,0.00
2013-3-15,47.5,35.1,22.5,35.7,27.8,16.6,90,75,62,29.68,29.36,4,1,19,0.00
2013-3-16,37.0,32.1,29.1,32.5,30.8,29.1,100,95,81,29.54,29.32,1,0,5,0.01
2013-3-17,36.1,30.1,23.0,29.7,26.5,22.1,100,88,63,29.85,29.52,2,0,7,0.15
2013-3-18,31.8,27.0,20.7,31.8,24.6,19.6,100,91,67,29.88,29.46,3,0,11,0.00
2013-3-19,46.0,33.4,29.3,39.7,28.4,21.9,100,83,52,29.50,29.29,4,2,21,0.14
2013-3-20,40.5,32.3,25.0,26.8,22.6,19.5,85,68,49,29.50,29.40,5,1,19,0.00
2013-3-21,32.5,25.6,17.6,22.9,17.7,13.0,92,73,49,29.45,29.35,4,1,15,0.00
2013-3-22,35.8,29.1,21.7,27.1,23.7,20.8,99,81,66,29.58,29.39,5,1,17,0.00
2013-3-23,43.9,33.3,25.5,29.6,24.8,22.1,87,72,53,29.62,29.54,4,0,14,0.00
2013-3-24,44.1,34.0,23.7,29.0,25.6,22.1,96,73,48,29.60,29.24,4,1,11,0.00
2013-3-25,37.0,33.7,31.1,34.5,31.6,26.6,100,93,66,29.30,29.15,2,0,8,0.31
2013-3-26,49.6,37.4,29.1,41.3,33.7,29.1,100,88,58,29.57,29.30,2,0,26,0.05
2013-3-27,47.8,38.3,32.9,35.5,32.2,30.2,96,79,56,29.68,29.56,4,1,16,0.00
2013-3-28,45.3,39.6,34.9,35.4,32.1,29.4,96,76,56,29.81,29.63,2,0,11,0.00
2013-3-29,54.0,41.0,30.0,39.6,33.8,28.3,98,77,49,29.82,29.73,3,0,24,0.00
2013-3-30,57.9,39.3,23.7,36.7,28.8,23.7,100,72,31,29.82,29.68,3,0,11,0.00
2013-3-31,47.1,37.9,28.6,44.6,36.1,25.3,100,93,71,29.69,29.32,2,0,16,0.30
2013-4-1,49.3,40.6,30.0,46.0,32.4,16.3,100,76,36,29.57,29.27,4,1,18,0.01
2013-4-2,42.1,32.6,25.5,21.8,18.6,14.5,78,57,40,29.75,29.56,5,1,18,0.00
2013-4-3,43.9,32.7,24.3,22.4,18.1,-33.7,82,56,36,29.99,29.73,4,1,24,0.00
2013-4-4,55.9,36.9,18.9,28.2,20.3,15.1,87,55,28,29.99,29.61,3,0,11,0.00
2013-4-5,61.3,42.1,24.8,35.3,23.8,17.0,87,52,24,29.71,29.45,4,1,16,0.00
2013-4-6,57.9,40.2,25.3,25.5,21.3,16.6,81,50,24,29.93,29.71,3,1,10,0.00
2013-4-7,68.7,54.2,41.9,49.2,37.0,23.5,94,53,41,29.75,29.49,3,1,23,0.00
2013-4-8,77.4,57.9,36.9,56.4,48.5,36.9,100,75,45,29.69,29.51,2,0,8,0.00
2013-4-9,82.4,67.7,54.9,59.1,54.8,48.3,93,66,40,29.67,29.48,3,1,14,0.00
2013-4-10,83.8,67.4,57.2,68.5,61.3,54.3,100,82,59,29.55,29.38,5,1,19,0.57
2013-4-11,59.4,50.3,43.9,59.4,50.3,43.9,100,100,100,29.56,29.42,4,2,11,0.02
2013-4-12,52.9,48.9,44.8,52.9,48.7,40.9,100,99,84,29.44,29.24,4,1,14,0.57
2013-4-13,54.5,45.9,40.3,42.9,40.0,37.6,98,81,61,29.58,29.43,4,1,14,0.00
2013-4-14,61.0,48.3,34.3,42.1,37.0,29.8,89,67,43,29.74,29.57,3,1,13,0.00
2013-4-15,71.8,56.3,42.8,56.4,48.2,40.1,94,75,55,29.82,29.72,4,1,16,0.00
2013-4-16,71.8,60.6,53.1,66.2,58.6,50.8,100,93,80,29.83,29.65,3,1,14,0.11
2013-4-17,70.0,58.9,50.2,60.3,48.6,41.2,100,73,38,29.89,29.74,4,1,9,0.00
2013-4-18,69.1,60.4,50.5,63.3,55.9,41.3,100,86,56,29.82,29.52,3,1,18,0.00
2013-4-19,72.9,61.9,47.1,68.5,60.2,42.4,100,94,81,29.53,29.10,4,2,20,0.67
2013-4-20,52.5,44.0,34.3,43.2,33.9,23.3,91,68,47,29.99,29.40,5,2,17,0.00
2013-4-21,54.9,39.4,10.6,31.6,27.3,-8.4,97,65,37,30.20,29.99,5,1,11,0.28
2013-4-22,60.6,46.0,31.8,38.4,33.5,28.5,97,65,37,30.16,29.98,4,1,12,0.00
2013-4-23,64.8,50.1,39.0,48.2,39.7,32.0,90,69,49,30.01,29.66,3,0,9,0.00
2013-4-24,76.5,55.5,41.5,61.8,49.8,38.6,100,83,54,29.69,29.30,6,1,29,0.34
2013-4-25,62.4,49.1,37.4,43.8,37.8,31.3,94,68,39,29.92,29.69,3,1,14,0.00
2013-4-26,64.2,49.5,34.5,42.9,36.1,29.5,100,65,29,30.07,29.92,4,0,8,0.00
2013-4-27,73.8,52.4,31.5,47.3,38.9,29.9,98,65,35,30.03,29.85,3,0,9,0.00
2013-4-28,68.4,53.4,38.7,52.5,46.7,38.7,100,80,52,29.85,29.70,3,1,15,0.02
2013-4-29,57.4,54.6,52.2,57.4,52.6,45.7,100,93,75,29.71,29.65,2,0,11,0.00
2013-4-30,64.4,57.0,48.4,60.7,55.9,48.4,100,96,83,29.89,29.71,2,0,9,0.00
2013-5-1,76.5,58.6,43.9,48.7,44.0,36.3,100,65,29,30.02,29.89,3,0,9,0.00
2013-5-2,77.4,58.6,39.6,51.6,45.4,39.6,100,66,33,30.04,29.90,3,1,11,0.00
2013-5-3,73.4,58.5,42.6,53.6,47.2,40.7,100,70,44,29.98,29.86,3,1,10,0.00
2013-5-4,74.8,57.9,39.0,54.5,47.0,39.0,100,70,45,29.92,29.76,3,1,10,0.00
2013-5-5,76.5,58.8,42.1,52.9,43.4,34.3,100,64,26,29.83,29.72,3,0,9,0.00
2013-5-6,74.8,58.1,39.9,60.8,50.9,10.7,100,79,56,29.80,29.67,3,0,10,0.00
2013-5-7,79.5,63.9,5.9,66.2,57.5,-6.7,100,82,52,29.72,29.61,3,1,10,0.00
2013-5-8,64.8,60.2,54.5,64.8,60.1,54.5,100,99,91,29.65,29.53,2,0,8,0.33
2013-5-9,68.9,58.5,52.7,68.8,58.5,52.7,100,100,98,29.61,29.52,1,0,8,0.37
2013-5-10,72.7,58.4,50.0,72.5,58.4,50.0,100,100,100,29.63,29.44,0,0,6,0.15
2013-5-15,64.6,62.6,60.6,60.9,60.5,60.0,98,93,86,29.36,29.36,2,0,2,0.00
2013-5-16,80.8,67.6,56.7,59.9,49.8,42.4,99,57,33,29.58,29.37,13,1,13,0.00
2013-5-17,76.5,60.5,44.1,54.4,48.6,42.4,98,67,43,29.81,29.57,5,1,5,0.00
2013-5-18,70.5,61.3,52.3,61.5,55.6,49.1,95,82,66,29.84,29.77,10,1,10,0.00
2013-5-19,65.1,61.4,58.5,64.9,61.1,58.2,99,99,95,29.82,29.72,8,1,8,0.00
2013-5-20,85.8,71.1,61.5,76.9,68.6,61.3,99,92,72,29.72,29.56,8,1,8,0.00
2013-5-21,91.2,75.5,60.1,80.8,70.7,59.8,99,87,60,29.60,29.41,10,2,10,0.00
2013-5-22,91.2,74.9,64.2,75.3,69.4,64.0,99,85,55,29.51,29.36,29,2,29,0.05
2013-5-23,79.2,66.7,60.1,76.9,65.8,59.8,99,97,79,29.47,29.32,10,1,14,0.51
2013-5-24,60.6,51.4,44.2,60.4,48.5,37.7,99,90,71,29.78,29.37,17,3,17,0.09
2013-5-25,65.1,51.0,39.2,45.0,39.4,33.8,99,68,38,29.80,29.69,14,3,16,0.00
2013-5-26,71.6,54.7,39.7,46.8,40.9,36.0,97,64,34,29.85,29.73,21,3,21,0.00
2013-5-27,73.6,55.3,35.2,52.6,45.1,35.0,99,72,40,29.90,29.75,8,1,8,0.00
2013-5-28,65.1,57.8,52.0,64.9,57.2,49.6,99,98,85,29.80,29.66,7,1,7,0.28
2013-5-29,86.2,70.3,57.7,78.4,67.3,57.5,99,91,72,29.71,29.63,15,2,15,0.07
2013-5-30,90.1,73.5,58.1,78.5,68.6,57.8,99,86,59,29.80,29.70,10,1,10,0.00
2013-5-31,91.4,75.4,61.3,80.1,70.1,61.1,99,85,62,29.77,29.59,11,1,11,0.00
2013-6-1,90.9,75.9,61.5,79.5,71.2,61.3,99,86,64,29.64,29.46,11,2,11,0.00
2013-6-2,84.4,74.5,67.3,76.8,70.8,65.8,99,89,59,29.47,29.40,15,2,15,0.00
2013-6-3,79.3,67.2,54.1,67.9,60.3,44.6,99,81,52,29.63,29.45,13,2,13,0.00
2013-6-4,77.7,60.6,42.1,57.5,49.5,41.8,99,70,43,29.77,29.63,12,2,12,0.00
2013-6-5,80.4,63.5,43.9,62.3,53.9,43.6,99,74,45,29.83,29.64,8,1,8,0.02
2013-6-6,66.7,62.8,59.4,60.9,58.2,53.0,99,86,67,29.66,29.47,13,3,13,0.43
2013-6-7,67.3,63.7,61.2,67.0,63.4,60.9,99,99,99,29.47,29.34,8,1,8,0.05
2013-6-8,72.5,63.2,54.7,68.9,62.1,54.4,99,96,76,29.74,29.37,10,1,10,0.05
2013-6-9,82.2,66.0,49.5,70.2,61.6,49.2,99,87,57,29.83,29.71,6,1,6,0.11
2013-6-10,69.1,66.6,65.8,67.9,66.2,65.6,99,99,95,29.73,29.38,7,2,8,0.01
2013-6-11,69.1,66.6,65.7,68.8,66.3,65.4,99,99,96,29.47,29.36,12,2,12,0.46
2013-6-12,82.4,70.2,60.3,74.6,67.2,59.8,99,91,64,29.52,29.41,10,1,10,0.00
2013-6-13,74.5,65.9,60.3,74.1,65.7,60.0,99,99,99,29.42,29.09,15,2,15,1.02
2013-6-14,78.3,65.6,56.8,70.4,62.1,56.4,99,89,65,29.62,29.30,13,2,13,0.00
2013-6-15,80.1,64.8,51.1,71.0,59.8,50.8,99,85,55,29.70,29.60,8,2,8,0.00
2013-6-16,77.2,66.0,56.8,75.0,65.1,56.5,99,97,87,29.65,29.44,13,2,13,0.00
2013-6-17,86.5,71.1,60.4,77.5,66.8,60.2,99,88,54,29.58,29.49,16,2,16,0.01
2013-6-18,130.1,65.9,57.2,75.7,65.2,5.4,99,98,10,29.59,29.45,18,1,18,0.12
2013-6-19,76.8,62.7,49.1,65.3,56.7,48.8,99,83,53,29.78,29.58,8,1,8,0.01
2013-6-20,83.1,65.4,48.0,74.0,62.2,47.8,99,90,66,29.87,29.78,8,1,8,0.00
2013-6-21,84.2,71.7,59.4,77.6,68.7,59.1,99,91,71,29.89,29.80,8,1,8,0.00
2013-6-22,88.0,73.5,58.6,79.6,70.3,58.4,99,90,70,29.84,29.69,9,2,9,0.00
2013-6-23,91.2,76.9,64.2,83.4,74.0,64.0,99,91,71,29.79,29.64,8,1,8,0.00
2013-6-24,92.1,77.3,63.9,81.8,72.6,63.6,99,87,57,29.75,29.60,11,2,11,0.00
2013-6-25,86.4,73.2,66.0,82.0,72.5,65.8,99,97,79,29.65,29.47,18,2,18,0.64
2013-6-26,80.6,70.2,64.8,80.4,70.0,64.5,99,99,96,29.55,29.46,8,1,8,0.08
2013-6-28,72.0,65.5,21.7,68.2,63.6,20.0,99,93,84,29.58,29.51,3,0,6,0.00
2013-6-29,82.8,65.0,57.6,67.2,62.1,57.4,100,91,50,29.73,29.54,9,0,9,0.00
2013-6-30,89.1,73.6,58.6,74.3,65.2,58.3,100,78,43,29.91,29.72,4,0,4,0.06
2013-7-1,73.8,67.9,67.8,72.1,66.8,66.7,96,96,95,29.93,29.90,0,0,0,0.06
2013-7-2,79.3,79.3,79.3,73.4,73.1,73.0,82,81,81,30.06,30.06,0,0,0,0.00
2013-7-3,72.0,71.5,71.1,70.2,70.0,69.6,96,95,94,30.20,30.18,0,0,0,0.00
2013-7-4,90.9,78.1,69.8,75.9,71.5,68.5,99,82,53,30.21,30.12,10,0,10,0.08
2013-7-5,91.8,79.3,71.8,76.6,72.1,69.4,98,80,52,30.17,30.08,8,0,8,0.01
2013-7-6,93.0,75.3,66.9,75.4,69.9,66.4,99,86,49,30.18,30.08,5,0,6,0.00
2013-7-7,90.9,77.7,66.9,75.4,70.3,66.7,99,81,49,30.08,29.97,8,0,8,0.42
2013-7-8,82.6,69.3,64.6,74.4,67.4,64.6,100,94,67,30.10,30.03,8,0,8,0.06
2013-7-9,81.1,72.0,65.5,75.0,69.6,64.8,99,92,78,30.10,29.98,5,0,5,0.09
2013-7-10,85.3,74.3,66.7,75.4,71.1,65.8,99,91,67,29.99,29.82,8,0,9,0.30
2013-7-11,86.2,72.2,61.3,69.4,64.7,57.7,99,80,42,29.98,29.85,7,0,7,0.00
2013-7-12,77.5,68.0,60.1,69.3,64.0,59.2,98,88,69,30.14,29.98,3,0,4,0.01
2013-7-13,81.3,71.0,65.1,75.0,68.8,64.4,98,93,75,30.28,30.11,3,0,3,0.10
2013-7-14,91.2,76.8,65.5,75.9,70.1,65.3,99,82,52,30.34,30.26,6,0,6,0.00
2013-7-15,95.4,78.3,64.8,79.0,71.4,64.4,99,82,45,30.33,30.19,6,0,8,0.48
2013-7-16,96.4,80.4,69.8,77.5,72.9,68.5,99,81,43,30.31,30.18,5,0,5,0.00
2013-7-17,94.5,80.2,67.5,79.0,73.3,66.9,99,81,52,30.27,30.10,5,0,5,0.00
2013-7-18,96.3,79.8,70.0,79.5,72.7,67.8,99,81,48,30.14,30.00,6,0,6,0.00
2013-7-19,93.7,79.9,66.7,77.0,72.1,66.6,99,79,51,30.02,29.81,8,0,8,0.00
2013-7-20,87.1,76.4,71.4,72.9,70.4,68.0,90,82,55,29.88,29.78,8,0,9,0.00
2013-7-21,91.2,76.6,65.8,71.8,68.1,61.3,98,78,40,29.97,29.88,5,0,5,0.00
2013-7-22,86.4,73.5,64.9,77.0,70.0,64.2,99,89,63,29.96,29.77,4,0,6,0.16
2013-7-23,87.3,73.9,63.9,72.0,68.4,61.5,99,84,52,29.77,29.65,8,0,8,0.01
2013-7-24,77.2,67.2,55.2,64.6,59.1,53.2,95,77,50,30.03,29.71,7,0,8,0.00
2013-7-25,80.1,62.0,47.1,60.4,53.9,46.6,99,78,44,30.12,30.02,6,0,6,0.00
2013-7-26,86.2,65.7,48.9,62.4,56.0,48.4,99,75,39,30.15,30.02,5,0,5,0.00
2013-7-27,77.0,67.2,54.7,70.3,63.3,53.6,97,88,69,30.06,29.90,6,0,6,0.02
2013-7-28,83.7,70.9,59.9,68.2,63.6,56.1,97,80,43,30.02,29.88,12,0,12,0.60
2013-7-29,77.7,64.6,51.8,60.3,56.4,51.3,99,77,47,30.19,30.03,8,0,8,0.00
2013-7-30,78.1,64.1,50.4,64.2,57.1,49.8,99,80,49,30.26,30.16,6,0,6,0.00
2013-7-31,84.9,67.6,52.0,66.2,60.0,51.4,99,79,44,30.21,29.99,4,0,4,0.00
2013-8-1,84.0,71.3,63.1,70.7,65.4,60.6,93,82,58,29.99,29.82,7,0,9,0.00
2013-8-2,82.0,67.1,55.4,65.8,59.2,54.5,99,78,43,29.97,29.89,11,0,11,0.00
2013-8-3,81.7,67.4,56.7,70.0,63.1,55.2,98,87,56,29.97,29.89,6,0,6,0.26
2013-8-4,78.3,63.0,52.0,61.3,55.5,51.4,99,79,45,30.08,29.97,8,0,8,0.00
2013-8-5,77.4,62.7,48.9,61.7,53.9,47.8,99,77,39,30.16,30.06,0,0,0,0.00
2013-8-6,81.7,66.2,53.2,65.8,58.8,52.3,97,79,50,30.09,30.05,9,0,10,0.00
2013-8-7,79.0,68.8,63.3,70.0,65.1,60.6,98,88,72,30.08,29.99,4,0,7,0.09
2013-8-8,86.9,72.0,60.6,76.1,67.7,60.1,99,87,63,30.05,29.95,0,0,0,0.00
2013-8-9,84.7,74.3,65.8,76.5,71.5,64.9,98,91,70,29.98,29.84,1,0,1,0.32
2013-8-10,85.1,70.0,59.5,69.1,62.3,57.7,98,80,42,30.11,29.98,8,0,9,0.00
2013-8-11,82.8,67.8,57.6,68.7,60.9,56.3,97,81,50,30.16,30.04,4,0,5,0.00
2013-8-12,66.4,64.8,63.3,63.7,62.9,62.1,96,93,90,29.96,29.93,1,0,1,0.00
2013-8-13,84.6,70.0,59.0,70.5,62.1,49.6,98,78,48,29.93,29.75,8,0,9,0.02
2013-8-14,72.7,59.4,47.7,55.4,50.3,46.0,95,73,46,30.14,29.91,7,0,7,0.00
2013-8-15,78.3,59.8,44.8,57.2,49.9,44.1,99,74,36,30.23,30.12,5,0,8,0.00
2013-8-16,83.8,62.9,46.0,59.5,52.0,45.5,99,73,31,30.24,30.17,6,0,6,0.00
2013-8-17,81.3,63.4,48.4,62.1,55.4,47.8,98,78,41,30.33,30.24,3,0,3,0.00
2013-8-18,75.6,64.3,57.7,63.7,58.5,56.1,96,83,55,30.29,30.18,4,0,5,0.00
2013-8-19,82.8,66.1,57.4,68.5,61.8,56.1,98,87,58,30.20,30.07,5,0,5,0.09
2013-8-20,87.1,70.5,59.4,67.6,61.6,56.5,99,78,38,30.20,30.11,7,0,7,0.00
2013-8-21,88.9,69.6,53.4,69.4,61.8,53.2,99,80,41,30.24,30.07,6,0,6,0.00
2013-8-22,86.7,72.3,62.6,70.0,66.0,62.1,98,83,51,30.09,29.91,10,0,12,0.23
2013-8-23,83.8,67.6,57.0,69.1,61.5,55.0,99,84,43,30.19,29.99,4,0,4,0.00
2013-8-24,83.8,64.4,48.7,63.0,55.1,48.4,99,76,38,30.36,30.19,7,0,7,0.00
2013-8-25,85.3,65.8,47.8,62.1,55.7,47.3,99,75,37,30.44,30.23,9,0,10,0.00
2013-8-26,87.8,72.7,60.3,67.8,63.4,58.6,95,75,46,30.25,29.98,9,0,9,0.01
2013-8-27,90.0,76.0,66.4,72.1,68.9,65.1,97,81,50,29.99,29.86,7,0,7,0.21
2013-8-28,82.0,72.5,68.5,75.2,71.0,68.2,99,95,74,29.92,29.82,0,0,0,0.33
2013-8-29,91.6,75.6,66.6,74.1,68.7,62.6,99,82,41,30.03,29.91,4,0,4,0.00
2013-8-30,89.2,73.6,62.6,73.2,66.5,62.2,99,81,47,30.02,29.82,7,0,7,0.00
2013-8-31,88.0,74.8,65.7,74.7,69.2,64.8,98,84,56,29.85,29.75,7,0,7,0.00
2013-9-1,86.0,75.8,68.4,73.8,70.2,67.5,97,84,60,29.84,29.76,2,0,6,0.00
2013-9-2,88.9,73.2,65.5,73.9,68.1,64.0,99,86,50,29.80,29.70,11,0,11,0.12
2013-9-3,73.8,65.5,58.8,66.4,59.3,54.9,100,82,53,30.00,29.78,10,0,14,0.00
2013-9-4,81.9,65.3,52.2,61.0,56.6,51.6,99,77,41,30.11,30.00,9,0,10,0.00
2013-9-5,79.0,65.6,51.8,61.0,51.4,40.6,95,66,27,30.23,30.01,11,0,11,0.00
2013-9-6,77.7,56.0,39.9,47.3,42.4,33.8,98,68,23,30.33,30.17,5,0,5,0.00
2013-9-7,81.5,60.2,41.2,59.0,46.8,33.8,98,68,22,30.19,29.95,9,0,9,0.02
2013-9-8,79.0,63.9,50.7,66.4,58.1,48.7,99,84,49,30.14,29.91,7,0,7,0.00
2013-9-9,73.6,58.5,41.9,59.9,50.4,41.2,98,78,43,30.24,30.12,8,0,8,0.01
2013-9-10,92.8,73.1,57.7,73.9,66.1,57.0,99,81,53,30.17,30.04,11,0,11,0.00
2013-9-11,92.7,74.8,67.5,76.1,70.5,66.7,99,88,55,30.14,30.00,8,0,8,0.01
2013-9-12,84.6,70.4,61.5,73.6,67.8,59.9,99,92,65,30.01,29.75,23,0,23,0.15
2013-9-13,71.1,60.7,53.2,60.3,52.7,45.7,99,77,45,30.00,29.76,9,0,9,0.02
2013-9-14,70.2,54.8,44.1,47.3,45.3,42.1,96,72,39,30.19,30.00,7,0,8,0.00
2013-9-15,73.9,54.1,37.2,54.5,46.7,36.7,99,80,40,30.28,30.09,7,0,7,0.00
2013-9-16,74.1,60.5,51.1,57.4,53.3,43.3,99,79,47,30.35,30.09,9,0,9,0.08
2013-9-17,71.1,51.0,35.4,44.8,39.7,34.7,99,71,28,30.49,30.34,6,0,7,0.00
2013-9-18,75.4,53.0,35.1,48.9,41.8,34.3,99,72,30,30.38,30.19,8,0,8,0.00
2013-9-19,81.0,57.2,39.0,59.9,49.8,38.5,99,80,45,30.22,30.08,8,0,8,0.00
2013-9-20,81.9,62.4,47.7,63.0,55.4,47.3,99,81,46,30.11,29.91,7,0,7,0.00
2013-9-21,66.6,63.3,57.4,63.5,60.2,57.0,99,90,82,29.93,29.63,11,0,12,0.62
2013-9-22,64.4,56.8,49.5,58.1,49.6,42.4,100,79,53,30.02,29.75,7,0,13,0.01
2013-9-23,67.8,53.9,42.1,47.5,42.9,39.2,96,68,41,30.14,30.02,7,0,8,0.00
2013-9-24,75.9,50.9,35.1,52.3,43.2,34.5,99,80,35,30.18,29.99,5,0,5,0.00
2013-9-25,76.5,53.2,37.6,53.1,44.8,37.0,99,79,30,30.06,29.93,5,0,5,0.00
2013-9-26,78.8,55.3,38.1,55.2,47.0,37.6,99,78,37,30.14,30.01,5,0,5,0.00
2013-9-27,76.5,59.4,50.2,57.9,52.0,48.6,98,79,41,30.26,30.14,5,0,5,0.00
2013-9-28,68.5,54.4,43.2,56.3,49.4,42.6,99,85,55,30.36,30.26,3,0,3,0.00
2013-9-29,76.5,54.1,40.3,54.3,46.3,39.9,99,80,37,30.26,30.08,7,0,7,0.00
2013-9-30,79.2,58.1,41.7,55.8,49.7,41.4,99,78,38,30.12,29.98,6,0,6,0.00
2013-10-1,79.9,63.0,53.8,61.2,55.4,52.3,98,79,42,30.09,29.97,9,0,9,0.00
2013-10-2,82.8,64.5,48.9,64.4,57.6,48.4,99,81,51,30.09,30.00,10,0,11,0.00
2013-10-3,81.3,64.7,52.2,65.1,59.0,52.0,99,84,56,30.16,30.03,5,0,6,0.00
2013-10-4,85.5,69.3,60.3,68.0,63.3,59.4,98,83,48,30.11,30.00,6,0,6,0.00
2013-10-5,83.8,69.3,58.1,68.2,63.4,57.7,99,83,55,30.11,29.99,7,0,7,0.01
2013-10-6,86.0,72.2,61.2,68.5,64.9,60.6,98,80,51,30.02,29.85,11,0,12,0.00
2013-10-7,72.7,61.9,46.8,65.8,55.5,43.0,97,80,55,30.08,29.69,15,1,15,0.76
2013-10-8,71.4,52.8,41.2,48.6,43.9,39.6,99,76,35,30.37,30.08,5,0,6,0.00
2013-10-9,66.9,50.5,37.2,47.1,40.7,33.6,99,74,30,30.43,30.32,5,0,5,0.00
2013-10-10,61.3,49.3,39.6,53.1,45.0,38.8,98,87,51,30.33,30.16,4,0,4,0.22
2013-10-11,49.6,49.4,48.9,49.1,48.8,48.0,98,98,97,30.16,30.12,1,0,1,0.60
2013-10-12,75.5,58.4,47.7,54.5,48.4,41.8,99,74,32,30.26,30.12,5,2,5,0.00
2013-10-13,64.8,59.1,52.7,55.9,53.3,50.2,96,82,67,30.35,30.26,5,0,5,0.00
2013-10-14,62.1,56.8,53.4,55.0,52.3,48.6,95,85,75,30.37,30.28,5,0,6,0.00
2013-10-15,73.0,60.6,50.2,57.0,53.2,47.5,99,78,51,30.30,30.08,9,0,10,0.00
2013-10-16,64.8,58.1,52.9,57.2,52.6,46.8,94,82,68,30.08,29.89,6,0,6,0.00
2013-10-17,69.6,61.0,53.1,60.6,54.8,49.1,95,81,55,29.94,29.63,14,0,15,0.11
2013-10-18,63.3,52.8,40.6,48.1,42.2,38.7,94,70,41,30.03,29.83,13,1,13,0.00
2013-10-19,56.7,44.8,33.3,50.7,42.6,32.5,99,92,70,30.03,29.76,10,0,10,0.12
2013-10-20,60.1,47.2,38.1,42.1,38.3,34.9,94,74,40,30.10,29.90,12,0,12,0.00
2013-10-21,66.7,47.4,31.8,45.0,37.0,31.3,99,73,35,30.17,29.94,10,0,11,0.00
2013-10-22,57.1,46.6,39.4,45.9,35.8,29.8,82,67,36,29.92,29.83,15,3,15,0.00
2013-10-23,45.7,41.0,37.2,39.6,35.3,32.4,88,80,65,29.91,29.74,6,0,6,0.01
2013-10-24,47.5,39.0,32.4,34.9,31.5,27.7,92,76,48,30.13,29.90,18,1,18,0.00
2013-10-25,50.9,40.7,32.5,37.0,32.2,27.9,84,73,47,30.29,30.13,12,0,12,0.00
2013-10-26,54.9,41.3,29.3,31.6,28.2,24.8,92,64,33,30.28,29.92,15,1,15,0.00
2013-10-27,51.1,42.5,30.7,36.0,32.7,28.4,91,69,51,30.17,29.94,11,1,12,0.00
2013-10-28,62.4,40.0,25.2,38.1,31.7,24.1,97,76,35,30.37,30.16,7,0,7,0.00
2013-10-29,57.2,41.7,29.8,38.8,34.7,29.1,98,79,47,30.47,30.34,6,0,7,0.00
2013-10-30,66.9,45.3,31.5,44.8,37.9,30.7,98,79,41,30.35,30.16,3,0,3,0.00
2013-10-31,66.0,58.0,49.5,59.4,54.5,44.4,96,88,77,30.19,29.64,12,1,17,0.16
2013-11-1,67.3,59.1,42.6,60.3,51.0,41.0,95,78,41,29.72,29.38,19,2,19,0.38
2013-11-2,55.9,45.4,36.3,46.9,41.2,35.8,99,86,56,29.90,29.68,12,0,12,0.03
2013-11-3,51.3,39.9,25.3,43.7,30.4,21.4,95,71,38,30.55,29.90,7,0,11,0.02
2013-11-4,44.4,31.6,20.1,24.6,20.9,14.2,95,68,31,30.70,30.55,8,0,8,0.00
2013-11-5,54.9,43.0,33.4,39.0,31.2,20.5,93,64,45,30.66,30.47,10,0,10,0.00
2013-11-6,64.6,51.4,36.0,50.0,44.9,34.5,97,80,58,30.47,29.96,11,1,11,0.00
2013-11-7,60.4,49.1,36.1,52.5,41.8,24.6,97,77,57,30.08,29.86,18,1,18,0.37
2013-11-8,45.9,37.9,28.8,33.1,29.4,25.2,88,72,53,30.32,30.06,14,1,15,0.00
2013-11-9,50.2,38.7,25.3,33.3,28.4,23.4,94,69,45,30.34,29.95,12,0,12,0.00
2013-11-10,50.5,46.1,39.0,38.1,31.7,27.3,73,57,44,30.22,29.93,20,2,21,0.00
2013-11-11,49.8,42.1,30.6,34.2,29.6,21.2,91,64,34,30.28,30.03,14,0,14,0.00
2013-11-12,43.9,32.0,27.7,37.0,23.3,13.3,94,72,40,30.43,30.06,14,0,15,0.04
2013-11-13,39.0,30.4,24.4,25.3,21.0,17.1,81,68,49,30.52,30.35,9,0,11,0.00
2013-11-14,52.3,34.4,24.3,23.5,19.5,10.0,89,59,19,30.35,30.22,11,0,11,0.00
2013-11-15,57.6,35.2,22.1,32.7,24.8,17.6,92,70,23,30.30,30.19,7,0,7,0.00
2013-11-16,61.0,46.2,31.1,45.5,38.4,29.5,96,75,49,30.34,30.20,8,0,9,0.00
2013-11-17,58.3,53.1,49.1,56.5,51.0,45.3,97,92,85,30.21,29.56,14,1,20,0.34
2013-11-18,59.2,49.8,39.7,57.4,37.2,27.0,96,64,38,29.98,29.56,21,2,21,0.17
2013-11-19,42.3,35.3,23.2,32.4,24.8,20.7,91,66,49,30.47,29.98,16,0,16,0.00
2013-11-20,44.4,28.2,19.6,26.8,20.2,11.7,96,76,28,30.63,30.47,6,0,6,0.00
2013-11-21,45.0,36.2,25.3,36.0,28.4,18.0,82,73,61,30.62,30.38,9,0,9,0.00
2013-11-22,47.9,42.4,39.4,47.6,40.5,32.5,99,93,71,30.38,30.05,8,0,9,0.05
2013-11-23,40.6,31.8,21.4,32.7,22.7,9.1,91,70,45,30.24,30.04,16,1,16,0.00
2013-11-24,28.6,20.9,16.5,15.8,7.1,1.6,82,56,35,30.52,30.23,12,1,13,0.00
2013-11-25,35.4,24.4,12.6,13.8,11.1,8.2,86,60,36,30.56,30.30,10,0,12,0.00
2013-11-26,32.4,30.4,28.6,31.3,28.1,12.2,97,92,45,30.33,29.92,8,0,8,0.00
2013-11-27,34.7,28.5,23.2,32.6,24.1,16.7,98,83,74,30.02,29.63,14,2,14,0.04
2013-11-28,29.1,25.0,22.8,21.7,20.1,16.7,90,82,69,30.51,30.02,14,0,14,0.00
2013-11-29,32.4,23.9,15.4,24.4,20.3,14.0,96,87,66,30.80,30.50,5,0,5,0.00
2013-11-30,32.4,22.0,10.9,22.3,16.9,-6.9,95,81,61,30.80,30.40,6,0,6,0.00
2013-12-1,30.2,24.5,15.4,26.8,21.3,14.0,96,88,81,30.40,30.09,3,0,3,0.00
2013-12-2,37.2,31.0,25.5,32.4,28.6,24.1,97,91,79,30.09,29.92,3,0,3,0.01
2013-12-3,43.2,35.2,27.9,37.9,33.0,27.3,98,92,78,30.05,29.94,2,0,2,0.04
2013-12-4,42.3,33.7,28.0,38.1,32.5,27.7,98,95,84,30.16,30.05,3,0,3,0.00
2013-12-5,56.7,49.7,39.4,52.7,48.1,37.4,99,94,83,30.09,29.93,8,0,9,0.42
2013-12-6,48.9,38.5,30.4,48.6,36.9,29.7,99,94,79,30.26,29.96,7,0,7,0.37
2013-12-7,34.3,28.2,18.0,30.0,25.4,15.4,98,90,72,30.64,30.24,6,0,6,0.00
2013-12-8,26.2,20.8,13.5,24.8,18.4,11.7,96,90,77,30.65,30.35,3,0,3,0.00
2013-12-9,35.6,32.0,25.5,33.6,29.6,24.6,97,91,76,30.35,30.04,13,1,13,0.04
2013-12-10,32.4,28.2,22.5,27.0,19.7,9.5,90,71,51,30.22,30.00,20,1,20,0.00
2013-12-11,30.4,23.3,18.7,19.8,14.7,11.3,88,70,46,30.39,30.22,12,1,13,0.00
2013-12-12,21.7,18.4,15.3,18.0,8.4,2.5,87,65,47,30.47,30.23,18,1,18,0.00
2013-12-13,32.4,24.4,18.1,23.2,14.0,4.3,88,65,49,30.37,30.20,18,1,18,0.00
2013-12-14,28.9,25.6,23.2,25.9,22.8,18.9,96,89,82,30.40,29.84,4,0,4,0.00
2013-12-15,33.3,28.1,23.2,30.9,24.8,14.9,97,88,69,29.98,29.67,0,0,0,0.00
2013-12-16,25.7,16.9,9.1,16.0,9.3,4.6,88,73,51,30.25,29.98,0,0,0,0.00
2013-12-17,24.6,17.8,11.8,21.6,15.2,9.9,94,89,76,30.22,30.02,0,0,0,0.00
2013-12-18,32.9,24.6,12.2,25.0,19.4,10.6,96,81,62,30.24,30.06,0,0,0,0.00
2013-12-19,43.9,22.9,8.4,32.7,19.1,6.4,96,86,62,30.19,30.07,3,0,3,0.07
2013-12-20,37.6,32.0,26.1,33.3,30.1,25.2,97,93,82,30.14,29.98,1,0,1,0.20
2013-12-21,39.6,35.7,33.3,38.5,34.7,32.0,99,96,92,30.00,29.85,5,0,5,0.59
2013-12-22,62.1,53.1,35.2,57.4,50.6,34.9,99,92,77,29.96,29.68,15,1,18,0.04
2013-12-23,49.6,42.8,30.7,48.7,38.5,21.7,99,85,67,30.28,29.93,16,0,16,0.03
2013-12-24,32.9,26.5,17.1,24.6,18.5,9.7,84,72,57,30.50,30.21,13,0,13,0.00
2013-12-25,26.4,19.9,9.3,14.7,11.0,7.3,92,69,54,30.61,30.36,8,0,9,0.00
2013-12-26,33.1,26.4,22.5,29.1,21.6,13.3,91,82,61,30.38,30.22,11,0,11,0.00
2013-12-27,36.7,27.0,18.0,27.9,22.1,15.8,95,82,63,30.41,30.32,7,0,7,0.01
2013-12-28,51.6,34.0,20.3,32.4,26.8,18.9,96,78,43,30.32,30.11,15,0,15,0.01
2013-12-29,39.9,33.6,30.4,38.7,32.6,28.2,99,96,90,30.11,29.68,9,0,10,0.96
2013-12-30,40.5,29.5,19.2,38.3,22.0,10.0,94,74,59,30.24,29.82,12,0,12,0.02
2013-12-31,28.2,21.9,17.8,25.0,15.0,10.2,90,75,60,30.35,30.11,16,1,17,0.00
2014-1-1,27.3,22.7,17.4,21.9,18.5,13.3,95,84,75,30.44,30.21,8,0,9,0.00
2014-1-2,24.6,21.3,11.8,22.3,19.1,9.5,95,91,86,30.21,29.80,8,1,8,0.00